Time;durP1;ratioP1;P1;durP2;ratioP2;P2;SDS_P1;SDS_P2;PMS_P1;PMS_P2;Temp;Humidity;BMP_temperature;BMP_pressure;BME280_temperature;BME280_humidity;BME280_pressure;Samples;Min_cycle;Max_cycle;Signal;HPM_P1;HPM_P2
2023/04/01 00:00:11;;;;;;;7.57;5.70;;;;;;;9.53;100.00;99236.19;5058734;28;20048;-78
2023/04/01 00:02:38;;;;;;;9.00;6.90;;;;;;;9.54;100.00;99240.53;5018623;28;20051;-77
2023/04/01 00:05:06;;;;;;;9.23;6.85;;;;;;;9.53;100.00;99233.56;5041375;28;20045;-78
2023/04/01 00:07:36;;;;;;;8.90;7.18;;;;;;;9.52;100.00;99242.31;5043920;28;20037;-78
2023/04/01 00:10:08;;;;;;;7.10;6.18;;;;;;;9.52;100.00;99236.19;5057147;28;20440;-78
2023/04/01 00:12:38;;;;;;;8.05;6.45;;;;;;;9.49;100.00;99242.41;5054434;28;20053;-78
2023/04/01 00:15:07;;;;;;;8.90;6.80;;;;;;;9.49;100.00;99238.88;5045936;28;20057;-76
2023/04/01 00:17:35;;;;;;;9.18;8.23;;;;;;;9.47;100.00;99244.19;5044054;28;20044;-79
2023/04/01 00:20:03;;;;;;;9.68;8.68;;;;;;;9.46;100.00;99245.06;5042819;28;20048;-77
2023/04/01 00:22:31;;;;;;;8.50;7.60;;;;;;;9.47;100.00;99238.03;5048905;28;20048;-77
2023/04/01 00:24:58;;;;;;;8.88;7.97;;;;;;;9.48;100.00;99243.28;5047559;28;20055;-77
2023/04/01 00:27:25;;;;;;;10.95;8.45;;;;;;;9.47;100.00;99240.66;5041135;28;20060;-78
2023/04/01 00:29:53;;;;;;;10.25;8.95;;;;;;;9.46;100.00;99241.59;5046561;28;20053;-77
2023/04/01 00:32:20;;;;;;;9.88;8.85;;;;;;;9.46;100.00;99244.22;5047195;28;20045;-77
2023/04/01 00:34:51;;;;;;;14.75;9.23;;;;;;;9.43;100.00;99236.38;4974512;28;20067;-77
2023/04/01 00:37:20;;;;;;;10.70;9.05;;;;;;;9.44;100.00;99246.00;5023661;28;20079;-76
2023/04/01 00:39:48;;;;;;;9.82;8.48;;;;;;;9.44;100.00;99235.47;5062830;28;20048;-76
2023/04/01 00:42:15;;;;;;;11.98;9.57;;;;;;;9.45;100.00;99239.84;5044273;28;20052;-76
2023/04/01 00:44:47;;;;;;;12.80;9.05;;;;;;;9.44;100.00;99232.84;5042095;28;20066;-76
2023/04/01 00:47:15;;;;;;;10.75;9.65;;;;;;;9.44;100.00;99232.84;5033759;28;20048;-76
2023/04/01 00:49:46;;;;;;;11.90;9.18;;;;;;;9.47;100.00;99240.66;5022835;28;20048;-76
2023/04/01 00:52:18;;;;;;;10.63;9.48;;;;;;;9.47;100.00;99241.56;5063054;28;20052;-77
2023/04/01 00:54:49;;;;;;;13.48;10.52;;;;;;;9.49;100.00;99236.25;5061707;28;20064;-77
2023/04/01 00:57:25;;;;;;;11.50;9.43;;;;;;;9.49;100.00;99233.63;5039534;28;20053;-77
2023/04/01 00:59:54;;;;;;;12.05;8.50;;;;;;;9.50;100.00;99238.00;5031248;28;20052;-77
2023/04/01 01:02:22;;;;;;;11.15;8.98;;;;;;;9.49;100.00;99236.25;5049032;28;20056;-77
2023/04/01 01:04:49;;;;;;;10.82;9.80;;;;;;;9.49;100.00;99236.25;5059083;28;20048;-77
2023/04/01 01:07:50;;;;;;;13.80;10.25;;;;;;;9.49;100.00;99233.63;4993553;28;20048;-78
2023/04/01 01:10:26;;;;;;;9.82;8.77;;;;;;;9.47;100.00;99238.94;5064887;28;20045;-78
2023/04/01 01:13:05;;;;;;;11.23;10.13;;;;;;;9.47;100.00;99244.19;5050003;28;20514;-78
2023/04/01 01:15:37;;;;;;;9.90;8.90;;;;;;;9.47;100.00;99251.19;5047435;28;20063;-76
2023/04/01 01:18:31;;;;;;;14.02;9.93;;;;;;;9.48;100.00;99245.03;5056940;28;20071;-76
2023/04/01 01:21:19;;;;;;;10.35;9.27;;;;;;;9.48;100.00;99245.03;5015998;28;20048;-78
2023/04/01 01:24:03;;;;;;;11.73;9.95;;;;;;;9.47;100.00;99252.06;5047813;28;20048;-78
2023/04/01 01:26:36;;;;;;;14.90;10.52;;;;;;;9.47;100.00;99248.56;5047528;28;20059;-78
2023/04/01 01:29:34;;;;;;;13.05;10.50;;;;;;;9.47;100.00;99251.19;5065714;28;20056;-77
2023/04/01 01:32:29;;;;;;;11.52;9.85;;;;;;;9.45;100.00;99253.88;5062987;28;20060;-77
2023/04/01 01:35:15;;;;;;;11.88;9.45;;;;;;;9.43;100.00;99252.13;5052413;28;20051;-77
2023/04/01 01:37:45;;;;;;;13.85;10.18;;;;;;;9.40;100.00;99247.81;5015216;28;20052;-77
2023/04/01 01:40:16;;;;;;;13.93;10.52;;;;;;;9.42;100.00;99253.91;5054224;28;20040;-77
2023/04/01 01:42:49;;;;;;;14.02;10.88;;;;;;;9.42;100.00;99255.69;5060896;28;20407;-77
2023/04/01 01:45:21;;;;;;;12.15;9.52;;;;;;;9.42;100.00;99261.78;5044500;28;20048;-77
2023/04/01 01:47:50;;;;;;;18.67;10.30;;;;;;;9.42;100.00;99256.53;5060944;28;20071;-77
2023/04/01 01:50:20;;;;;;;13.68;9.35;;;;;;;9.42;100.00;99253.91;5052129;28;20060;-77
2023/04/01 01:52:47;;;;;;;13.25;10.57;;;;;;;9.42;100.00;99255.69;5023247;28;20040;-77
2023/04/01 01:55:33;;;;;;;11.88;10.65;;;;;;;9.42;100.00;99261.78;5054575;28;20364;-77
2023/04/01 01:58:40;;;;;;;13.38;10.70;;;;;;;9.42;100.00;99260.94;5044532;28;20048;-78
2023/04/01 02:01:17;;;;;;;14.07;10.55;;;;;;;9.40;100.00;99258.34;5036284;28;20049;-77
2023/04/01 02:03:46;;;;;;;12.50;10.57;;;;;;;9.41;100.00;99269.72;5066152;28;20419;-77
2023/04/01 02:06:18;;;;;;;11.57;10.38;;;;;;;9.41;100.00;99270.56;5068199;28;20044;-77
2023/04/01 02:08:51;;;;;;;14.00;11.32;;;;;;;9.41;100.00;99272.34;5022768;28;20382;-78
2023/04/01 02:11:30;;;;;;;14.55;11.60;;;;;;;9.41;100.00;99267.06;5051424;28;20059;-78
2023/04/01 02:14:21;;;;;;;15.70;11.27;;;;;;;9.40;100.00;99268.84;5057276;28;20056;-77
2023/04/01 02:16:59;;;;;;;12.40;10.63;;;;;;;9.41;100.00;99272.34;5051192;28;20471;-77
2023/04/01 02:19:33;;;;;;;16.10;11.65;;;;;;;9.41;100.00;99275.81;5068407;28;20040;-77
2023/04/01 02:22:03;;;;;;;13.20;10.60;;;;;;;9.41;100.00;99277.59;5066773;28;20060;-77
2023/04/01 02:24:34;;;;;;;13.88;11.10;;;;;;;9.42;100.00;99279.34;5025789;28;20399;-78
2023/04/01 02:27:01;;;;;;;15.25;11.65;;;;;;;9.42;100.00;99288.09;5060470;28;20041;-77
2023/04/01 02:29:31;;;;;;;15.02;11.52;;;;;;;9.41;100.00;99278.44;5045758;28;20060;-78
2023/04/01 02:32:00;;;;;;;16.10;12.52;;;;;;;9.40;100.00;99278.50;5054363;28;20052;-77
2023/04/01 02:34:28;;;;;;;16.30;12.32;;;;;;;9.37;100.00;99279.41;5066529;28;20049;-78
2023/04/01 02:36:57;;;;;;;16.73;12.73;;;;;;;9.35;100.00;99289.09;5053921;28;20048;-78
2023/04/01 02:39:26;;;;;;;17.38;11.63;;;;;;;9.33;100.00;99290.88;5025108;28;20064;-77
2023/04/01 02:41:53;;;;;;;19.27;12.57;;;;;;;9.32;100.00;99290.00;5032626;28;20072;-77
2023/04/01 02:44:20;;;;;;;17.88;12.68;;;;;;;9.31;100.00;99290.88;5066433;28;20064;-77
2023/04/01 02:46:48;;;;;;;14.65;12.27;;;;;;;9.30;100.00;99286.53;5055309;28;20075;-78
2023/04/01 02:49:15;;;;;;;16.02;12.85;;;;;;;9.29;100.00;99297.06;5050131;28;20043;-77
2023/04/01 02:51:42;;;;;;;15.43;11.88;;;;;;;9.29;100.00;99292.69;5058718;28;20041;-77
2023/04/01 02:54:10;;;;;;;18.90;13.50;;;;;;;9.29;100.00;99295.31;5050631;28;20131;-77
2023/04/01 02:56:37;;;;;;;14.75;12.68;;;;;;;9.30;100.00;99301.41;5023045;28;20407;-77
2023/04/01 02:59:05;;;;;;;17.70;12.80;;;;;;;9.30;100.00;99302.31;5046673;28;20041;-77
2023/04/01 03:01:32;;;;;;;13.85;11.75;;;;;;;9.28;100.00;99304.09;5058424;28;20066;-77
2023/04/01 03:04:00;;;;;;;17.52;13.48;;;;;;;9.27;100.00;99299.72;5058240;28;20071;-77
2023/04/01 03:06:27;;;;;;;21.02;13.50;;;;;;;9.27;100.00;99314.63;5069252;28;20052;-77
2023/04/01 03:08:54;;;;;;;18.77;13.70;;;;;;;9.24;100.00;99317.31;5048297;28;20166;-77
2023/04/01 03:11:22;;;;;;;19.23;14.10;;;;;;;9.21;100.00;99318.22;4988268;28;20403;-77
2023/04/01 03:13:50;;;;;;;22.60;15.05;;;;;;;9.19;100.00;99320.00;5051882;28;20056;-77
2023/04/01 03:16:18;;;;;;;18.48;14.95;;;;;;;9.15;100.00;99308.69;5055538;28;20044;-77
2023/04/01 03:18:46;;;;;;;21.52;16.00;;;;;;;9.16;100.00;99320.06;5039317;28;20053;-77
2023/04/01 03:21:19;;;;;;;18.00;13.73;;;;;;;9.16;100.00;99314.78;5065554;28;20053;-78
2023/04/01 03:23:46;;;;;;;21.52;15.75;;;;;;;9.15;100.00;99310.44;5069773;28;20047;-77
2023/04/01 03:26:14;;;;;;;20.10;14.40;;;;;;;9.14;100.00;99314.81;5009981;28;20052;-77
2023/04/01 03:28:43;;;;;;;20.45;14.73;;;;;;;9.13;100.00;99318.34;5054917;28;20508;-77
2023/04/01 03:31:10;;;;;;;20.73;15.15;;;;;;;9.14;100.00;99319.22;5044327;28;20503;-75
2023/04/01 03:33:44;;;;;;;15.13;12.32;;;;;;;9.14;100.00;99327.09;5041525;28;20123;-77
2023/04/01 03:36:12;;;;;;;23.83;15.45;;;;;;;9.14;100.00;99322.69;5059974;28;20057;-77
2023/04/01 03:38:40;;;;;;;18.88;13.85;;;;;;;9.13;100.00;99327.97;5064546;28;20047;-77
2023/04/01 03:41:14;;;;;;;18.15;14.77;;;;;;;9.11;100.00;99335.00;5067372;28;20431;-77
2023/04/01 03:43:44;;;;;;;20.70;14.82;;;;;;;9.08;100.00;99327.19;5024019;28;20077;-77
2023/04/01 03:46:16;;;;;;;18.50;15.13;;;;;;;9.07;100.00;99331.56;5067760;28;20048;-77
2023/04/01 03:48:43;;;;;;;25.73;17.63;;;;;;;9.07;100.00;99342.06;5039054;28;20059;-77
2023/04/01 03:51:11;;;;;;;23.33;16.92;;;;;;;9.07;100.00;99331.56;5048517;28;20040;-78
2023/04/01 03:53:38;;;;;;;22.65;16.25;;;;;;;9.07;100.00;99330.69;5052056;28;20045;-77
2023/04/01 03:56:07;;;;;;;25.60;18.48;;;;;;;9.09;100.00;99342.94;5060114;28;20056;-77
2023/04/01 03:58:36;;;;;;;26.02;16.92;;;;;;;9.09;100.00;99336.78;5006860;28;20055;-77
2023/04/01 04:01:17;;;;;;;23.30;17.20;;;;;;;9.09;100.00;99348.19;5056169;28;20100;-76
2023/04/01 04:03:45;;;;;;;26.27;17.30;;;;;;;9.08;100.00;99345.59;5060652;28;20057;-77
2023/04/01 04:06:14;;;;;;;26.30;17.75;;;;;;;9.08;100.00;99356.09;5047660;28;20063;-77
2023/04/01 04:08:42;;;;;;;24.40;17.27;;;;;;;9.07;100.00;99343.84;5048547;28;20056;-77
2023/04/01 04:11:09;;;;;;;25.52;18.67;;;;;;;9.07;100.00;99360.47;5047291;28;20136;-77
2023/04/01 04:13:41;;;;;;;26.50;18.17;;;;;;;9.08;100.00;99350.84;5020369;28;20083;-77
2023/04/01 04:16:10;;;;;;;29.55;19.25;;;;;;;9.08;100.00;99356.97;5062488;28;20052;-77
2023/04/01 04:18:42;;;;;;;27.42;19.15;;;;;;;9.08;100.00;99356.97;5048618;28;20049;-77
2023/04/01 04:21:14;;;;;;;26.23;19.33;;;;;;;9.09;100.00;99356.09;5034003;28;20051;-77
2023/04/01 04:23:42;;;;;;;26.88;20.60;;;;;;;9.10;100.00;99362.19;5029148;28;20044;-77
2023/04/01 04:26:12;;;;;;;28.35;20.48;;;;;;;9.10;100.00;99363.06;5042874;28;20064;-77
2023/04/01 04:28:40;;;;;;;24.95;19.40;;;;;;;9.10;100.00;99365.69;5019479;28;20522;-78
2023/04/01 04:31:09;;;;;;;28.65;19.50;;;;;;;9.11;100.00;99371.81;5032753;28;20049;-77
2023/04/01 04:33:37;;;;;;;27.42;19.33;;;;;;;9.09;100.00;99376.22;5021848;28;20063;-77
2023/04/01 04:36:04;;;;;;;30.58;21.13;;;;;;;9.08;100.00;99380.59;5042076;28;20439;-77
2023/04/01 04:38:33;;;;;;;26.65;19.58;;;;;;;9.08;100.00;99379.75;5046126;28;20052;-77
2023/04/01 04:41:00;;;;;;;26.50;18.67;;;;;;;9.07;100.00;99384.13;5055250;28;20045;-77
2023/04/01 04:43:28;;;;;;;27.58;19.85;;;;;;;9.07;100.00;99397.25;5000801;28;21736;-77
2023/04/01 04:45:56;;;;;;;28.77;20.83;;;;;;;9.08;100.00;99385.00;5037560;28;20052;-77
2023/04/01 04:48:24;;;;;;;30.02;20.23;;;;;;;9.07;100.00;99393.75;5035822;28;20057;-77
2023/04/01 04:50:51;;;;;;;28.02;19.23;;;;;;;9.05;100.00;99392.91;5047349;28;20044;-76
2023/04/01 04:53:22;;;;;;;27.67;19.48;;;;;;;9.05;100.00;99408.69;5033586;28;20064;-77
2023/04/01 04:55:50;;;;;;;26.00;18.75;;;;;;;9.04;100.00;99407.81;5047116;28;20079;-77
2023/04/01 04:58:27;;;;;;;26.25;19.85;;;;;;;9.03;100.00;99406.06;5010810;28;21043;-77
2023/04/01 05:00:55;;;;;;;27.75;19.58;;;;;;;9.02;100.00;99411.34;5045598;28;20048;-77
2023/04/01 05:03:30;;;;;;;22.52;18.48;;;;;;;9.03;100.00;99410.47;5007524;28;20048;-77
2023/04/01 05:05:57;;;;;;;25.98;19.15;;;;;;;9.02;100.00;99413.97;5033830;28;20059;-77
2023/04/01 05:08:25;;;;;;;26.83;19.17;;;;;;;9.03;100.00;99419.22;5022318;28;20057;-77
2023/04/01 05:10:52;;;;;;;28.13;19.38;;;;;;;9.03;100.00;99421.84;5026498;28;20053;-77
2023/04/01 05:13:20;;;;;;;27.55;20.67;;;;;;;9.02;100.00;99419.22;5008340;28;20264;-76
2023/04/01 05:15:47;;;;;;;30.30;20.50;;;;;;;9.03;100.00;99427.09;5041430;28;20044;-77
2023/04/01 05:18:16;;;;;;;26.73;19.10;;;;;;;9.02;100.00;99421.84;5049016;28;20044;-78
2023/04/01 05:20:51;;;;;;;23.48;18.27;;;;;;;9.03;100.00;99428.84;5063085;28;20061;-77
2023/04/01 05:23:21;;;;;;;23.35;17.75;;;;;;;9.04;100.00;99439.34;5043867;28;20056;-78
2023/04/01 05:25:52;;;;;;;27.45;21.00;;;;;;;9.05;100.00;99434.97;5050516;28;20543;-78
2023/04/01 05:28:20;;;;;;;24.20;17.40;;;;;;;9.06;100.00;99437.56;5059625;28;20041;-78
2023/04/01 05:30:47;;;;;;;23.50;17.80;;;;;;;9.07;100.00;99441.06;5014728;28;20048;-78
2023/04/01 05:33:23;;;;;;;25.92;18.52;;;;;;;9.06;100.00;99442.84;5028861;28;20059;-78
2023/04/01 05:35:51;;;;;;;20.80;16.25;;;;;;;9.07;100.00;99448.94;5063426;28;20415;-77
2023/04/01 05:38:18;;;;;;;23.92;18.92;;;;;;;9.08;100.00;99448.06;5032297;28;20080;-78
2023/04/01 05:40:45;;;;;;;24.27;18.15;;;;;;;9.08;100.00;99448.06;5052573;28;20048;-77
2023/04/01 05:43:14;;;;;;;22.95;17.95;;;;;;;9.08;100.00;99454.19;5036517;28;20076;-77
2023/04/01 05:45:44;;;;;;;22.80;17.60;;;;;;;9.10;100.00;99462.06;5022391;28;20049;-78
2023/04/01 05:48:15;;;;;;;24.58;18.45;;;;;;;9.10;100.00;99455.03;5050191;28;20052;-78
2023/04/01 05:50:43;;;;;;;26.05;19.55;;;;;;;9.11;100.00;99466.41;5053492;28;20032;-76
2023/04/01 05:53:11;;;;;;;23.98;18.55;;;;;;;9.12;100.00;99462.91;5052189;28;20044;-76
2023/04/01 05:55:42;;;;;;;26.88;19.00;;;;;;;9.12;100.00;99468.16;5036591;28;20060;-76
2023/04/01 05:58:09;;;;;;;22.42;18.70;;;;;;;9.13;100.00;99475.13;5038748;28;20739;-77
2023/04/01 06:00:39;;;;;;;24.33;19.08;;;;;;;9.14;100.00;99476.88;5022596;28;20041;-76
2023/04/01 06:03:07;;;;;;;24.52;18.95;;;;;;;9.14;100.00;99477.75;5045319;28;20045;-78
2023/04/01 06:05:43;;;;;;;27.02;19.38;;;;;;;9.15;100.00;99484.75;5041201;28;20040;-76
2023/04/01 06:08:18;;;;;;;26.63;20.35;;;;;;;9.15;100.00;99486.53;5035550;28;20049;-78
2023/04/01 06:11:20;;;;;;;26.17;19.33;;;;;;;9.17;100.00;99490.00;5042643;28;20405;-77
2023/04/01 06:14:07;;;;;;;28.55;20.92;;;;;;;9.16;100.00;99490.88;5023711;28;20060;-76
2023/04/01 06:16:54;;;;;;;31.83;21.35;;;;;;;9.17;100.00;99500.53;5017945;28;20045;-75
2023/04/01 06:19:28;;;;;;;27.95;20.42;;;;;;;9.17;100.00;99498.75;5044807;28;20072;-75
2023/04/01 06:22:07;;;;;;;28.83;20.15;;;;;;;9.19;100.00;99506.63;5064957;28;20415;-75
2023/04/01 06:25:21;;;;;;;25.60;19.67;;;;;;;9.23;100.00;99504.81;5059935;28;20083;-75
2023/04/01 06:27:52;;;;;;;29.25;21.75;;;;;;;9.25;100.00;99518.81;5044551;28;20115;-75
2023/04/01 06:30:38;;;;;;;27.75;20.63;;;;;;;9.27;100.00;99512.63;5006536;28;20060;-75
2023/04/01 06:33:09;;;;;;;25.48;19.65;;;;;;;9.30;100.00;99511.72;5052662;28;20044;-75
2023/04/01 06:35:43;;;;;;;25.52;19.75;;;;;;;9.31;100.00;99522.22;5058209;28;20048;-78
2023/04/01 06:39:03;;;;;;;27.35;19.90;;;;;;;9.35;100.00;99517.78;5029165;28;20060;-76
2023/04/01 06:41:53;;;;;;;24.00;19.00;;;;;;;9.38;100.00;99530.91;5039364;28;20045;-75
2023/04/01 06:44:50;;;;;;;25.73;19.98;;;;;;;9.42;100.00;99531.75;5047866;28;20063;-77
2023/04/01 06:48:06;;;;;;;24.90;19.42;;;;;;;9.44;100.00;99538.72;5012558;28;20068;-76
2023/04/01 06:51:15;;;;;;;24.45;20.17;;;;;;;9.44;100.00;99537.84;4996488;28;20053;-77
2023/04/01 06:54:31;;;;;;;26.98;20.27;;;;;;;9.45;100.00;99547.47;5030880;28;20530;-77
2023/04/01 06:57:38;;;;;;;27.98;20.05;;;;;;;9.46;100.00;99549.22;5054126;28;20067;-77
2023/04/01 07:00:21;;;;;;;26.30;19.85;;;;;;;9.49;100.00;99554.41;5046633;28;20071;-77
2023/04/01 07:02:57;;;;;;;23.67;18.67;;;;;;;9.49;100.00;99562.31;5018926;28;20057;-77
2023/04/01 07:05:30;;;;;;;24.10;20.30;;;;;;;9.48;100.00;99550.06;5050672;28;20064;-77
2023/04/01 07:08:04;;;;;;;25.52;19.30;;;;;;;9.48;100.00;99561.44;5050777;28;20049;-78
2023/04/01 07:10:53;;;;;;;25.52;19.00;;;;;;;9.50;100.00;99564.91;5058758;28;20055;-78
2023/04/01 07:13:57;;;;;;;25.67;20.48;;;;;;;9.53;100.00;99567.53;5000730;28;20060;-77
2023/04/01 07:16:40;;;;;;;21.42;18.27;;;;;;;9.63;100.00;99573.53;5040337;28;20071;-77
2023/04/01 07:19:47;;;;;;;28.67;19.88;;;;;;;9.69;100.00;99581.31;5018542;28;20048;-79
2023/04/01 07:22:26;;;;;;;21.77;17.52;;;;;;;9.73;100.00;99582.16;5038867;28;20040;-78
2023/04/01 07:25:16;;;;;;;23.13;16.60;;;;;;;9.74;100.00;99576.03;5047638;28;20063;-77
2023/04/01 07:27:50;;;;;;;19.88;17.10;;;;;;;9.73;100.00;99577.78;5041911;28;20052;-77
2023/04/01 07:30:20;;;;;;;19.75;16.40;;;;;;;9.75;100.00;99589.16;5033628;28;20052;-77
2023/04/01 07:33:15;;;;;;;22.65;17.95;;;;;;;9.79;100.00;99594.34;5033670;28;20048;-77
2023/04/01 07:35:49;;;;;;;21.00;16.73;;;;;;;9.81;100.00;99600.47;5050595;28;20048;-77
2023/04/01 07:38:38;;;;;;;18.60;15.52;;;;;;;9.83;100.00;99598.69;5063543;28;20063;-77
2023/04/01 07:41:39;;;;;;;21.20;16.95;;;;;;;9.84;100.00;99610.97;5061753;28;20048;-77
2023/04/01 07:44:12;;;;;;;21.30;17.33;;;;;;;9.87;100.00;99613.56;5056344;28;20075;-77
2023/04/01 07:46:56;;;;;;;21.00;17.23;;;;;;;9.84;100.00;99617.09;5028116;28;20060;-76
2023/04/01 07:49:39;;;;;;;21.80;17.63;;;;;;;9.87;100.00;99622.31;5000806;28;20056;-76
2023/04/01 07:52:11;;;;;;;21.15;16.73;;;;;;;9.89;100.00;99624.94;5033150;28;20095;-76
2023/04/01 07:55:06;;;;;;;18.83;15.82;;;;;;;9.93;100.00;99627.50;5058568;28;20458;-77
2023/04/01 07:57:43;;;;;;;18.52;15.30;;;;;;;9.94;100.00;99639.78;5072193;28;20055;-78
2023/04/01 08:00:29;;;;;;;18.90;14.20;;;;;;;9.93;100.00;99630.13;5042172;28;20522;-77
2023/04/01 08:03:11;;;;;;;17.90;14.13;;;;;;;9.92;100.00;99646.81;5071504;28;20167;-77
2023/04/01 08:05:55;;;;;;;16.38;13.75;;;;;;;9.90;100.00;99652.97;5014898;28;20544;-77
2023/04/01 08:08:42;;;;;;;20.17;14.90;;;;;;;9.90;100.00;99656.47;5063920;28;20098;-77
2023/04/01 08:11:31;;;;;;;20.60;14.07;;;;;;;9.90;100.00;99651.19;5063571;28;20435;-77
2023/04/01 08:14:44;;;;;;;15.95;14.18;;;;;;;9.95;100.00;99661.69;5061489;28;20582;-77
2023/04/01 08:17:45;;;;;;;13.32;11.43;;;;;;;9.98;100.00;99660.75;5052131;28;20055;-77
2023/04/01 08:20:32;;;;;;;13.57;10.55;;;;;;;10.01;100.00;99663.38;5048564;28;20036;-77
2023/04/01 08:23:10;;;;;;;12.45;10.88;;;;;;;10.08;100.00;99675.56;5044809;28;20051;-77
2023/04/01 08:25:48;;;;;;;6.43;5.40;;;;;;;9.99;100.00;99691.47;5043001;28;20068;-77
2023/04/01 08:28:41;;;;;;;4.75;4.25;;;;;;;9.81;100.00;99689.94;5055294;28;20079;-77
2023/04/01 08:31:56;;;;;;;4.55;4.15;;;;;;;9.55;100.00;99691.13;5031674;28;20677;-77
2023/04/01 08:34:28;;;;;;;7.13;4.05;;;;;;;9.41;100.00;99696.50;5059804;28;20388;-77
2023/04/01 08:37:06;;;;;;;6.00;4.47;;;;;;;9.26;100.00;99708.06;5023955;28;20415;-77
2023/04/01 08:39:44;;;;;;;3.83;3.42;;;;;;;9.14;100.00;99711.66;5042634;28;20415;-77
2023/04/01 08:42:40;;;;;;;3.70;2.78;;;;;;;8.96;100.00;99725.00;5079805;28;20115;-77
2023/04/01 08:45:16;;;;;;;2.92;2.58;;;;;;;8.87;100.00;99722.44;5049843;28;20071;-77
2023/04/01 08:48:27;;;;;;;3.13;2.25;;;;;;;8.79;100.00;99733.00;5055893;28;20060;-77
2023/04/01 08:50:56;;;;;;;2.83;2.40;;;;;;;8.74;100.00;99740.03;5033380;28;20601;-77
2023/04/01 08:54:01;;;;;;;3.20;2.70;;;;;;;8.66;100.00;99744.44;5018023;28;20056;-78
2023/04/01 08:56:41;;;;;;;3.45;2.60;;;;;;;8.62;100.00;99742.72;5054213;28;20052;-76
2023/04/01 08:59:29;;;;;;;4.50;3.05;;;;;;;8.62;100.00;99755.84;5044083;28;20071;-77
2023/04/01 09:02:25;;;;;;;2.80;2.60;;;;;;;8.57;100.00;99754.13;5055199;28;20051;-76
2023/04/01 09:05:26;;;;;;;2.55;2.35;;;;;;;8.57;100.00;99756.75;5050758;28;20048;-78
2023/04/01 09:08:11;;;;;;;2.90;2.67;;;;;;;8.56;100.00;99768.16;5014084;28;20045;-78
2023/04/01 09:11:00;;;;;;;3.75;3.13;;;;;;;8.53;100.00;99762.91;5046438;28;20067;-77
2023/04/01 09:13:50;;;;;;;2.78;2.58;;;;;;;8.54;100.00;99775.19;5048582;28;20057;-78
2023/04/01 09:16:21;;;;;;;2.28;2.08;;;;;;;8.55;100.00;99776.91;5038229;28;20056;-78
2023/04/01 09:18:58;;;;;;;3.03;2.55;;;;;;;8.52;100.00;99776.91;5048987;28;20053;-78
2023/04/01 09:22:01;;;;;;;3.67;2.40;;;;;;;8.50;100.00;99799.69;5046903;28;20479;-78
2023/04/01 09:24:35;;;;;;;2.92;2.33;;;;;;;8.53;100.00;99793.56;4969785;28;20633;-78
2023/04/01 09:27:30;;;;;;;2.22;2.08;;;;;;;8.56;100.00;99807.56;5046069;28;20527;-77
2023/04/01 09:30:00;;;;;;;4.20;2.60;;;;;;;8.61;100.00;99806.66;5057688;28;20142;-78
2023/04/01 09:32:40;;;;;;;3.72;2.17;;;;;;;8.64;100.00;99809.25;5051849;28;20056;-77
2023/04/01 09:35:27;;;;;;;3.17;2.28;;;;;;;8.64;100.00;99815.38;5033731;28;20048;-77
2023/04/01 09:38:08;;;;;;;4.25;2.13;;;;;;;8.62;100.00;99832.00;5061260;28;20057;-77
2023/04/01 09:40:48;;;;;;;2.47;2.10;;;;;;;8.59;100.00;99820.66;5016989;28;20036;-76
2023/04/01 09:43:55;;;;;;;2.30;2.10;;;;;;;8.58;100.00;99828.53;5034105;28;20045;-77
2023/04/01 09:46:45;;;;;;;2.25;1.92;;;;;;;8.58;100.00;99829.41;5019457;28;20056;-76
2023/04/01 09:49:22;;;;;;;1.60;1.50;;;;;;;8.65;100.00;99829.38;5059348;28;20045;-78
2023/04/01 09:52:09;;;;;;;2.17;1.98;;;;;;;8.71;100.00;99845.97;5048563;28;20499;-76
2023/04/01 09:54:37;;;;;;;2.58;1.50;;;;;;;8.68;100.00;99847.75;5015357;28;20040;-78
2023/04/01 09:57:49;;;;;;;3.17;1.70;;;;;;;8.70;100.00;99873.13;5048585;28;20057;-78
2023/04/01 10:01:07;;;;;;;2.22;1.45;;;;;;;8.67;100.00;99857.38;5050655;28;20146;-76
2023/04/01 10:04:12;;;;;;;1.30;1.20;;;;;;;8.66;100.00;99858.28;5047574;28;20068;-77
2023/04/01 10:06:44;;;;;;;2.22;1.45;;;;;;;8.67;100.00;99862.63;5054675;28;20072;-77
2023/04/01 10:09:47;;;;;;;2.55;1.45;;;;;;;8.62;100.00;99872.31;5031230;28;20476;-78
2023/04/01 10:12:40;;;;;;;1.67;1.50;;;;;;;8.58;100.00;99881.03;5021992;28;20037;-78
2023/04/01 10:15:45;;;;;;;1.52;1.10;;;;;;;8.56;100.00;99885.44;5047517;28;20063;-78
2023/04/01 10:18:23;;;;;;;2.65;1.50;;;;;;;8.50;100.00;99890.72;5049399;28;20049;-77
2023/04/01 10:21:07;;;;;;;2.88;1.80;;;;;;;8.48;100.00;99895.97;5063046;28;20070;-78
2023/04/01 10:24:03;;;;;;;2.25;1.80;;;;;;;8.52;100.00;99897.69;5051428;28;20048;-76
2023/04/01 10:26:59;;;;;;;4.00;2.08;;;;;;;8.45;100.00;99906.50;5046776;28;20055;-78
2023/04/01 10:30:27;;;;;;;2.90;2.10;;;;;;;8.44;100.00;99910.00;5054838;28;20052;-77
2023/04/01 10:33:26;;;;;;;3.22;2.17;;;;;;;8.38;100.00;99916.09;5041608;28;20064;-77
2023/04/01 10:36:38;;;;;;;3.05;2.13;;;;;;;8.33;100.00;99920.47;5032122;28;20053;-78
2023/04/01 10:39:54;;;;;;;4.50;2.85;;;;;;;8.34;100.00;99924.88;5024169;28;20044;-75
2023/04/01 10:43:14;;;;;;;2.35;2.15;;;;;;;8.38;100.00;99933.63;4995811;28;20048;-78
2023/04/01 10:46:12;;;;;;;2.93;2.33;;;;;;;8.36;100.00;99928.34;5034918;28;20063;-78
2023/04/01 10:49:02;;;;;;;2.30;2.10;;;;;;;8.34;100.00;99942.38;5026929;28;20048;-78
2023/04/01 10:52:02;;;;;;;1.80;1.70;;;;;;;8.31;100.00;99939.75;5055144;28;20056;-77
2023/04/01 10:55:35;;;;;;;1.88;1.77;;;;;;;8.36;100.00;99930.97;5043087;28;20047;-78
2023/04/01 10:58:37;;;;;;;2.53;1.83;;;;;;;8.44;100.00;99941.50;5045159;28;20055;-78
2023/04/01 11:01:59;;;;;;;1.70;1.60;;;;;;;8.40;100.00;99948.47;5016457;28;20544;-78
2023/04/01 11:05:54;;;;;;;1.55;1.45;;;;;;;8.36;100.00;99957.22;5030820;28;20056;-77
2023/04/01 11:08:37;;;;;;;2.00;1.58;;;;;;;8.35;100.00;99963.34;5056680;28;20072;-78
2023/04/01 11:11:34;;;;;;;1.40;1.30;;;;;;;8.35;100.00;99963.34;5025545;28;20745;-77
2023/04/01 11:14:28;;;;;;;3.03;1.90;;;;;;;8.37;100.00;99960.72;5023766;28;20071;-78
2023/04/01 11:17:30;;;;;;;3.60;1.52;;;;;;;8.44;100.00;99969.50;5073534;28;20048;-77
2023/04/01 11:20:28;;;;;;;1.90;1.40;;;;;;;8.40;100.00;99968.59;5037602;28;20053;-75
2023/04/01 11:23:15;;;;;;;1.65;1.30;;;;;;;8.44;100.00;99983.50;5063293;28;20045;-77
2023/04/01 11:26:07;;;;;;;2.28;1.38;;;;;;;8.47;100.00;99990.50;5060464;28;20459;-77
2023/04/01 11:28:57;;;;;;;1.33;1.23;;;;;;;8.52;100.00;99997.47;5001080;28;20051;-79
2023/04/01 11:31:47;;;;;;;1.27;1.20;;;;;;;8.51;100.00;99998.38;5039423;28;20060;-77
2023/04/01 11:34:28;;;;;;;1.35;1.30;;;;;;;8.50;100.00;99999.25;5040605;28;20463;-78
2023/04/01 11:37:19;;;;;;;1.70;1.60;;;;;;;8.54;100.00;99997.47;5038074;28;20052;-78
2023/04/01 11:40:25;;;;;;;1.90;1.30;;;;;;;8.67;100.00;100001.81;5040290;28;20621;-79
2023/04/01 11:43:19;;;;;;;2.17;1.63;;;;;;;8.75;100.00;100009.69;5046912;28;20306;-77
2023/04/01 11:46:33;;;;;;;1.52;1.30;;;;;;;8.84;100.00;100025.41;5031616;28;20502;-78
2023/04/01 11:49:35;;;;;;;1.70;1.60;;;;;;;8.81;100.00;100028.06;5048335;28;20059;-78
2023/04/01 11:52:37;;;;;;;2.17;1.27;;;;;;;8.81;100.00;100029.81;5043853;28;20495;-78
2023/04/01 11:55:10;;;;;;;2.40;1.58;;;;;;;8.86;100.00;100039.44;5046059;28;20033;-78
2023/04/01 11:57:56;;;;;;;3.40;1.40;;;;;;;8.77;100.00;100042.97;5050509;28;20056;-76
2023/04/01 12:00:35;;;;;;;2.85;1.33;;;;;;;8.67;100.00;100043.84;5062015;28;20056;-77
2023/04/01 12:03:27;;;;;;;2.42;1.20;;;;;;;8.67;100.00;100053.50;5044468;28;20768;-77
2023/04/01 12:05:58;;;;;;;2.83;1.58;;;;;;;8.62;100.00;100055.25;5044806;28;20063;-76
2023/04/01 12:08:44;;;;;;;1.33;1.25;;;;;;;8.56;100.00;100064.00;5049088;28;20048;-77
2023/04/01 12:11:21;;;;;;;1.88;1.30;;;;;;;8.52;100.00;100063.13;5066390;28;20036;-78
2023/04/01 12:14:12;;;;;;;1.30;1.20;;;;;;;8.58;100.00;100064.88;5034271;28;20414;-78
2023/04/01 12:16:46;;;;;;;1.30;1.20;;;;;;;8.65;100.00;100076.25;5026197;28;20052;-76
2023/04/01 12:19:32;;;;;;;1.63;1.52;;;;;;;8.70;100.00;100078.00;5049555;28;20901;-76
2023/04/01 12:22:34;;;;;;;1.35;1.35;;;;;;;8.74;100.00;100090.25;5052364;28;20056;-77